sensor_id;sensor_type;location;lat;lon;timestamp;temperature;humidity
3818;DHT22;1924;48.078;11.516;2023-10-19T00:02:05;8.70;99.90
3818;DHT22;1924;48.078;11.516;2023-10-19T00:04:32;8.60;99.90
3818;DHT22;1924;48.078;11.516;2023-10-19T00:07:01;8.60;99.90
3818;DHT22;1924;48.078;11.516;2023-10-19T00:09:30;8.70;99.90
3818;DHT22;1924;48.078;11.516;2023-10-19T00:12:03;8.70;99.90
3818;DHT22;1924;48.078;11.516;2023-10-19T04:01:55;9.20;99.90
3818;DHT22;1924;48.078;11.516;2023-10-19T04:04:25;9.20;99.90
3818;DHT22;1924;48.078;11.516;2023-10-19T04:06:52;9.20;99.90
3818;DHT22;1924;48.078;11.516;2023-10-19T04:09:24;9.20;99.90
3818;DHT22;1924;48.078;11.516;2023-10-19T04:11:55;9.20;99.90
3818;DHT22;1924;48.078;11.516;2023-10-19T04:14:21;9.20;99.90
3818;DHT22;1924;48.078;11.516;2023-10-19T04:16:49;9.20;99.90
3818;DHT22;1924;48.078;11.516;2023-10-19T04:19:17;9.20;99.90
3818;DHT22;1924;48.078;11.516;2023-10-19T04:21:43;9.30;99.90
3818;DHT22;1924;48.078;11.516;2023-10-19T04:24:12;9.30;99.90
3818;DHT22;1924;48.078;11.516;2023-10-19T04:26:39;9.30;99.90
3818;DHT22;1924;48.078;11.516;2023-10-19T04:29:08;9.30;99.90
3818;DHT22;1924;48.078;11.516;2023-10-19T04:31:37;9.20;99.90
3818;DHT22;1924;48.078;11.516;2023-10-19T04:34:06;9.20;99.90
3818;DHT22;1924;48.078;11.516;2023-10-19T04:36:35;9.20;99.90
3818;DHT22;1924;48.078;11.516;2023-10-19T04:39:03;9.30;99.90
3818;DHT22;1924;48.078;11.516;2023-10-19T04:41:29;9.30;99.90
3818;DHT22;1924;48.078;11.516;2023-10-19T04:43:56;9.30;99.90
3818;DHT22;1924;48.078;11.516;2023-10-19T04:46:24;9.40;99.90
3818;DHT22;1924;48.078;11.516;2023-10-19T04:48:50;9.60;99.90
3818;DHT22;1924;48.078;11.516;2023-10-19T04:51:17;9.60;99.90
3818;DHT22;1924;48.078;11.516;2023-10-19T04:53:45;9.60;99.90
3818;DHT22;1924;48.078;11.516;2023-10-19T04:56:11;9.60;99.90
3818;DHT22;1924;48.078;11.516;2023-10-19T04:58:38;9.60;99.90
3818;DHT22;1924;48.078;11.516;2023-10-19T05:01:05;9.60;99.90
3818;DHT22;1924;48.078;11.516;2023-10-19T05:03:32;9.60;99.90
3818;DHT22;1924;48.078;11.516;2023-10-19T05:05:59;9.60;99.90
3818;DHT22;1924;48.078;11.516;2023-10-19T05:08:26;9.60;99.90
3818;DHT22;1924;48.078;11.516;2023-10-19T05:10:55;9.60;99.90
3818;DHT22;1924;48.078;11.516;2023-10-19T05:13:25;9.60;99.90
3818;DHT22;1924;48.078;11.516;2023-10-19T05:15:52;9.60;99.90
3818;DHT22;1924;48.078;11.516;2023-10-19T05:18:19;9.60;99.90
3818;DHT22;1924;48.078;11.516;2023-10-19T05:20:46;9.60;99.90
3818;DHT22;1924;48.078;11.516;2023-10-19T05:23:13;9.60;99.90
3818;DHT22;1924;48.078;11.516;2023-10-19T05:25:40;9.60;99.90
3818;DHT22;1924;48.078;11.516;2023-10-19T05:28:08;9.60;99.90
3818;DHT22;1924;48.078;11.516;2023-10-19T05:30:35;9.60;99.90
3818;DHT22;1924;48.078;11.516;2023-10-19T05:33:03;9.60;99.90
3818;DHT22;1924;48.078;11.516;2023-10-19T05:35:31;9.60;99.90
3818;DHT22;1924;48.078;11.516;2023-10-19T05:38:00;9.60;99.90
3818;DHT22;1924;48.078;11.516;2023-10-19T05:40:28;9.60;99.90
3818;DHT22;1924;48.078;11.516;2023-10-19T05:42:56;9.60;99.90
3818;DHT22;1924;48.078;11.516;2023-10-19T05:45:27;9.60;99.90
3818;DHT22;1924;48.078;11.516;2023-10-19T05:47:55;9.60;99.90
3818;DHT22;1924;48.078;11.516;2023-10-19T05:50:22;9.60;99.90
3818;DHT22;1924;48.078;11.516;2023-10-19T05:52:49;9.60;99.90
3818;DHT22;1924;48.078;11.516;2023-10-19T05:55:17;9.60;99.90
3818;DHT22;1924;48.078;11.516;2023-10-19T05:57:46;9.60;99.90
3818;DHT22;1924;48.078;11.516;2023-10-19T06:00:14;9.60;99.90
3818;DHT22;1924;48.078;11.516;2023-10-19T06:02:44;9.60;99.90
3818;DHT22;1924;48.078;11.516;2023-10-19T06:05:11;9.60;99.90
3818;DHT22;1924;48.078;11.516;2023-10-19T06:07:39;9.70;99.90
3818;DHT22;1924;48.078;11.516;2023-10-19T06:10:06;9.70;99.90
3818;DHT22;1924;48.078;11.516;2023-10-19T06:12:33;9.70;99.90
3818;DHT22;1924;48.078;11.516;2023-10-19T06:15:00;9.70;99.90
3818;DHT22;1924;48.078;11.516;2023-10-19T06:17:29;9.70;99.90
3818;DHT22;1924;48.078;11.516;2023-10-19T06:19:57;9.70;99.90
3818;DHT22;1924;48.078;11.516;2023-10-19T06:22:24;9.70;99.90
3818;DHT22;1924;48.078;11.516;2023-10-19T06:24:51;9.80;99.90
3818;DHT22;1924;48.078;11.516;2023-10-19T06:27:21;9.80;99.90
3818;DHT22;1924;48.078;11.516;2023-10-19T06:29:49;9.90;99.90
3818;DHT22;1924;48.078;11.516;2023-10-19T06:32:15;9.90;99.90
3818;DHT22;1924;48.078;11.516;2023-10-19T06:34:43;9.90;99.90
3818;DHT22;1924;48.078;11.516;2023-10-19T06:37:11;10.00;99.90
3818;DHT22;1924;48.078;11.516;2023-10-19T06:39:38;10.00;99.90
3818;DHT22;1924;48.078;11.516;2023-10-19T06:42:07;10.00;99.90
3818;DHT22;1924;48.078;11.516;2023-10-19T06:44:41;10.00;99.90
3818;DHT22;1924;48.078;11.516;2023-10-19T06:47:08;10.00;99.90
3818;DHT22;1924;48.078;11.516;2023-10-19T06:49:35;10.10;99.90
3818;DHT22;1924;48.078;11.516;2023-10-19T06:52:03;10.10;99.90
3818;DHT22;1924;48.078;11.516;2023-10-19T06:54:32;10.20;99.90
3818;DHT22;1924;48.078;11.516;2023-10-19T06:56:59;10.20;99.90
3818;DHT22;1924;48.078;11.516;2023-10-19T06:59:28;10.20;99.90
3818;DHT22;1924;48.078;11.516;2023-10-19T07:01:57;10.30;99.90
3818;DHT22;1924;48.078;11.516;2023-10-19T07:04:26;10.30;99.90
3818;DHT22;1924;48.078;11.516;2023-10-19T07:06:53;10.40;99.90
3818;DHT22;1924;48.078;11.516;2023-10-19T07:09:20;10.50;99.90
3818;DHT22;1924;48.078;11.516;2023-10-19T07:11:49;10.50;99.90
3818;DHT22;1924;48.078;11.516;2023-10-19T07:14:19;10.60;99.90
3818;DHT22;1924;48.078;11.516;2023-10-19T07:16:48;10.70;99.90
3818;DHT22;1924;48.078;11.516;2023-10-19T07:19:14;10.70;99.90
3818;DHT22;1924;48.078;11.516;2023-10-19T07:21:41;10.80;99.90
3818;DHT22;1924;48.078;11.516;2023-10-19T07:24:09;10.90;99.90
3818;DHT22;1924;48.078;11.516;2023-10-19T07:26:37;11.00;99.90
3818;DHT22;1924;48.078;11.516;2023-10-19T07:29:10;11.10;99.90
3818;DHT22;1924;48.078;11.516;2023-10-19T07:31:40;11.20;99.90
3818;DHT22;1924;48.078;11.516;2023-10-19T07:34:07;11.20;99.90
3818;DHT22;1924;48.078;11.516;2023-10-19T07:36:38;11.30;99.90
3818;DHT22;1924;48.078;11.516;2023-10-19T07:39:05;11.30;99.90
3818;DHT22;1924;48.078;11.516;2023-10-19T07:41:39;11.40;99.90
3818;DHT22;1924;48.078;11.516;2023-10-19T07:44:06;11.50;99.90
3818;DHT22;1924;48.078;11.516;2023-10-19T07:46:34;11.50;99.90
3818;DHT22;1924;48.078;11.516;2023-10-19T07:49:01;11.60;99.90
3818;DHT22;1924;48.078;11.516;2023-10-19T07:51:28;11.60;99.90
3818;DHT22;1924;48.078;11.516;2023-10-19T07:53:56;11.80;99.90
3818;DHT22;1924;48.078;11.516;2023-10-19T07:56:23;11.70;99.90
3818;DHT22;1924;48.078;11.516;2023-10-19T07:58:50;11.80;99.90
3818;DHT22;1924;48.078;11.516;2023-10-19T08:01:17;11.80;99.90
3818;DHT22;1924;48.078;11.516;2023-10-19T08:03:45;11.90;99.90
3818;DHT22;1924;48.078;11.516;2023-10-19T08:06:12;11.90;99.90
3818;DHT22;1924;48.078;11.516;2023-10-19T08:08:39;11.90;99.90
3818;DHT22;1924;48.078;11.516;2023-10-19T08:11:07;12.00;99.90
3818;DHT22;1924;48.078;11.516;2023-10-19T08:13:34;12.00;99.90
3818;DHT22;1924;48.078;11.516;2023-10-19T08:16:01;12.10;99.90
3818;DHT22;1924;48.078;11.516;2023-10-19T08:18:29;12.10;99.90
3818;DHT22;1924;48.078;11.516;2023-10-19T08:20:58;12.20;99.90
3818;DHT22;1924;48.078;11.516;2023-10-19T08:23:24;12.30;99.90
3818;DHT22;1924;48.078;11.516;2023-10-19T08:25:53;12.30;99.90
3818;DHT22;1924;48.078;11.516;2023-10-19T08:28:20;12.40;99.90
3818;DHT22;1924;48.078;11.516;2023-10-19T08:30:48;12.40;99.90
3818;DHT22;1924;48.078;11.516;2023-10-19T08:33:23;12.50;99.90
3818;DHT22;1924;48.078;11.516;2023-10-19T08:35:51;12.50;99.90
3818;DHT22;1924;48.078;11.516;2023-10-19T08:38:20;12.50;99.90
3818;DHT22;1924;48.078;11.516;2023-10-19T08:40:48;12.50;99.90
3818;DHT22;1924;48.078;11.516;2023-10-19T08:43:16;12.60;99.90
3818;DHT22;1924;48.078;11.516;2023-10-19T08:45:44;12.60;99.90
3818;DHT22;1924;48.078;11.516;2023-10-19T08:48:11;12.70;99.90
3818;DHT22;1924;48.078;11.516;2023-10-19T08:50:38;12.70;99.90
3818;DHT22;1924;48.078;11.516;2023-10-19T08:53:07;12.80;99.90
3818;DHT22;1924;48.078;11.516;2023-10-19T08:55:36;12.80;99.90
3818;DHT22;1924;48.078;11.516;2023-10-19T08:58:03;12.90;99.90
3818;DHT22;1924;48.078;11.516;2023-10-19T09:00:43;12.90;99.90
3818;DHT22;1924;48.078;11.516;2023-10-19T09:03:12;13.00;99.90
3818;DHT22;1924;48.078;11.516;2023-10-19T09:05:39;13.00;99.90
3818;DHT22;1924;48.078;11.516;2023-10-19T09:08:06;13.10;99.90
3818;DHT22;1924;48.078;11.516;2023-10-19T09:10:36;13.10;99.90
3818;DHT22;1924;48.078;11.516;2023-10-19T09:13:04;13.10;99.90
3818;DHT22;1924;48.078;11.516;2023-10-19T09:15:35;13.20;99.90
3818;DHT22;1924;48.078;11.516;2023-10-19T09:18:14;13.20;99.90
3818;DHT22;1924;48.078;11.516;2023-10-19T09:20:42;13.20;99.90
3818;DHT22;1924;48.078;11.516;2023-10-19T09:23:18;13.20;99.90
3818;DHT22;1924;48.078;11.516;2023-10-19T09:25:48;13.20;99.90
3818;DHT22;1924;48.078;11.516;2023-10-19T09:28:15;13.20;99.90
3818;DHT22;1924;48.078;11.516;2023-10-19T09:30:43;13.20;99.90
3818;DHT22;1924;48.078;11.516;2023-10-19T09:33:09;13.20;99.90
3818;DHT22;1924;48.078;11.516;2023-10-19T09:35:40;13.20;99.90
3818;DHT22;1924;48.078;11.516;2023-10-19T09:38:09;13.20;99.90
3818;DHT22;1924;48.078;11.516;2023-10-19T09:40:36;13.30;99.90
3818;DHT22;1924;48.078;11.516;2023-10-19T09:43:12;13.40;99.90
3818;DHT22;1924;48.078;11.516;2023-10-19T09:45:42;13.40;99.90
3818;DHT22;1924;48.078;11.516;2023-10-19T09:48:16;13.50;99.90
3818;DHT22;1924;48.078;11.516;2023-10-19T09:50:44;13.70;99.90
3818;DHT22;1924;48.078;11.516;2023-10-19T09:53:13;13.70;99.90
3818;DHT22;1924;48.078;11.516;2023-10-19T09:55:41;13.90;99.90
3818;DHT22;1924;48.078;11.516;2023-10-19T09:58:15;14.00;99.90
3818;DHT22;1924;48.078;11.516;2023-10-19T10:00:47;14.20;99.90
3818;DHT22;1924;48.078;11.516;2023-10-19T10:03:43;14.30;99.90
3818;DHT22;1924;48.078;11.516;2023-10-19T10:06:10;14.60;99.90
3818;DHT22;1924;48.078;11.516;2023-10-19T10:08:40;14.60;99.90
3818;DHT22;1924;48.078;11.516;2023-10-19T10:11:19;14.60;99.90
3818;DHT22;1924;48.078;11.516;2023-10-19T10:13:48;14.60;99.90
3818;DHT22;1924;48.078;11.516;2023-10-19T10:16:21;14.60;99.90
3818;DHT22;1924;48.078;11.516;2023-10-19T10:18:50;14.60;99.90
3818;DHT22;1924;48.078;11.516;2023-10-19T10:21:18;14.60;99.90
3818;DHT22;1924;48.078;11.516;2023-10-19T10:23:50;14.70;99.90
3818;DHT22;1924;48.078;11.516;2023-10-19T10:26:19;14.80;99.90
3818;DHT22;1924;48.078;11.516;2023-10-19T10:29:08;14.80;99.90
3818;DHT22;1924;48.078;11.516;2023-10-19T10:31:47;14.70;99.90
3818;DHT22;1924;48.078;11.516;2023-10-19T10:34:42;14.80;99.90
3818;DHT22;1924;48.078;11.516;2023-10-19T10:37:13;14.90;99.90
3818;DHT22;1924;48.078;11.516;2023-10-19T10:39:40;14.90;99.90
3818;DHT22;1924;48.078;11.516;2023-10-19T10:42:10;14.90;99.90
3818;DHT22;1924;48.078;11.516;2023-10-19T10:44:43;14.90;99.90
3818;DHT22;1924;48.078;11.516;2023-10-19T10:47:17;15.10;99.90
3818;DHT22;1924;48.078;11.516;2023-10-19T10:49:54;15.20;99.90
3818;DHT22;1924;48.078;11.516;2023-10-19T10:52:29;15.20;99.90
3818;DHT22;1924;48.078;11.516;2023-10-19T10:54:57;15.30;99.90
3818;DHT22;1924;48.078;11.516;2023-10-19T10:57:30;15.40;99.90
3818;DHT22;1924;48.078;11.516;2023-10-19T11:00:05;15.40;99.90
3818;DHT22;1924;48.078;11.516;2023-10-19T11:02:34;15.50;99.90
3818;DHT22;1924;48.078;11.516;2023-10-19T11:05:02;15.50;99.90
3818;DHT22;1924;48.078;11.516;2023-10-19T11:07:30;15.50;99.90
3818;DHT22;1924;48.078;11.516;2023-10-19T11:09:57;15.60;99.90
3818;DHT22;1924;48.078;11.516;2023-10-19T11:12:24;15.60;99.90
3818;DHT22;1924;48.078;11.516;2023-10-19T11:14:54;15.60;99.90
3818;DHT22;1924;48.078;11.516;2023-10-19T11:17:22;15.70;99.90
3818;DHT22;1924;48.078;11.516;2023-10-19T11:19:54;15.80;99.90
3818;DHT22;1924;48.078;11.516;2023-10-19T11:22:22;15.80;99.90
3818;DHT22;1924;48.078;11.516;2023-10-19T11:24:54;15.70;99.90
3818;DHT22;1924;48.078;11.516;2023-10-19T11:27:25;15.60;99.90
3818;DHT22;1924;48.078;11.516;2023-10-19T11:30:00;15.70;99.90
3818;DHT22;1924;48.078;11.516;2023-10-19T11:32:38;15.80;99.90
3818;DHT22;1924;48.078;11.516;2023-10-19T11:35:09;15.90;99.90
3818;DHT22;1924;48.078;11.516;2023-10-19T11:37:46;15.90;99.90
3818;DHT22;1924;48.078;11.516;2023-10-19T11:40:13;15.80;99.90
3818;DHT22;1924;48.078;11.516;2023-10-19T11:42:40;15.70;99.90
3818;DHT22;1924;48.078;11.516;2023-10-19T11:45:08;15.60;99.90
3818;DHT22;1924;48.078;11.516;2023-10-19T11:47:38;15.60;99.90
3818;DHT22;1924;48.078;11.516;2023-10-19T11:50:06;15.70;99.90
3818;DHT22;1924;48.078;11.516;2023-10-19T11:52:33;15.80;99.90
3818;DHT22;1924;48.078;11.516;2023-10-19T11:55:00;15.90;99.90
3818;DHT22;1924;48.078;11.516;2023-10-19T11:57:28;15.90;99.90
3818;DHT22;1924;48.078;11.516;2023-10-19T11:59:55;15.90;99.90
3818;DHT22;1924;48.078;11.516;2023-10-19T12:02:22;15.90;99.90
3818;DHT22;1924;48.078;11.516;2023-10-19T12:04:53;15.90;99.90
3818;DHT22;1924;48.078;11.516;2023-10-19T12:07:20;16.00;99.90
3818;DHT22;1924;48.078;11.516;2023-10-19T12:09:47;16.10;99.90
3818;DHT22;1924;48.078;11.516;2023-10-19T12:12:17;16.20;99.90
3818;DHT22;1924;48.078;11.516;2023-10-19T12:14:45;16.30;99.90
3818;DHT22;1924;48.078;11.516;2023-10-19T12:17:15;16.40;99.90
3818;DHT22;1924;48.078;11.516;2023-10-19T12:19:46;16.30;99.90
3818;DHT22;1924;48.078;11.516;2023-10-19T12:22:16;16.20;99.90
3818;DHT22;1924;48.078;11.516;2023-10-19T12:24:43;16.20;99.90
3818;DHT22;1924;48.078;11.516;2023-10-19T12:27:10;16.10;99.90
3818;DHT22;1924;48.078;11.516;2023-10-19T12:29:43;16.10;99.90
3818;DHT22;1924;48.078;11.516;2023-10-19T12:32:10;16.10;99.90
3818;DHT22;1924;48.078;11.516;2023-10-19T12:34:42;16.30;99.90
3818;DHT22;1924;48.078;11.516;2023-10-19T12:37:09;16.40;99.90
3818;DHT22;1924;48.078;11.516;2023-10-19T12:39:41;16.60;99.90
3818;DHT22;1924;48.078;11.516;2023-10-19T12:42:10;16.70;99.90
3818;DHT22;1924;48.078;11.516;2023-10-19T12:44:37;16.70;99.90
3818;DHT22;1924;48.078;11.516;2023-10-19T12:47:09;16.60;99.90
3818;DHT22;1924;48.078;11.516;2023-10-19T12:49:38;16.60;99.90
3818;DHT22;1924;48.078;11.516;2023-10-19T12:52:06;16.60;99.90
3818;DHT22;1924;48.078;11.516;2023-10-19T12:54:33;16.80;99.90
3818;DHT22;1924;48.078;11.516;2023-10-19T12:57:02;16.80;99.90
3818;DHT22;1924;48.078;11.516;2023-10-19T12:59:33;16.80;99.90
3818;DHT22;1924;48.078;11.516;2023-10-19T13:02:02;16.80;99.90
3818;DHT22;1924;48.078;11.516;2023-10-19T13:04:30;16.80;99.90
3818;DHT22;1924;48.078;11.516;2023-10-19T13:06:57;16.70;99.90
3818;DHT22;1924;48.078;11.516;2023-10-19T13:09:33;16.90;99.90
3818;DHT22;1924;48.078;11.516;2023-10-19T13:12:03;16.90;99.90
3818;DHT22;1924;48.078;11.516;2023-10-19T13:14:33;16.80;99.90
3818;DHT22;1924;48.078;11.516;2023-10-19T13:17:00;16.90;99.90
3818;DHT22;1924;48.078;11.516;2023-10-19T13:19:27;16.90;99.90
3818;DHT22;1924;48.078;11.516;2023-10-19T13:21:54;16.90;99.90
3818;DHT22;1924;48.078;11.516;2023-10-19T13:24:23;16.80;99.90
3818;DHT22;1924;48.078;11.516;2023-10-19T13:26:51;16.80;99.90
3818;DHT22;1924;48.078;11.516;2023-10-19T13:29:20;16.80;99.90
3818;DHT22;1924;48.078;11.516;2023-10-19T13:31:49;16.70;99.90
3818;DHT22;1924;48.078;11.516;2023-10-19T13:34:16;16.70;99.90
3818;DHT22;1924;48.078;11.516;2023-10-19T13:36:43;16.60;99.90
3818;DHT22;1924;48.078;11.516;2023-10-19T13:39:12;16.60;99.90
3818;DHT22;1924;48.078;11.516;2023-10-19T13:41:42;16.50;99.90
3818;DHT22;1924;48.078;11.516;2023-10-19T13:44:09;16.40;99.90
3818;DHT22;1924;48.078;11.516;2023-10-19T13:46:38;16.40;99.90
3818;DHT22;1924;48.078;11.516;2023-10-19T13:49:05;16.40;99.90
3818;DHT22;1924;48.078;11.516;2023-10-19T13:51:32;16.50;99.90
3818;DHT22;1924;48.078;11.516;2023-10-19T13:53:59;16.40;99.90
3818;DHT22;1924;48.078;11.516;2023-10-19T13:56:25;16.30;99.90
3818;DHT22;1924;48.078;11.516;2023-10-19T13:58:52;16.30;99.90
3818;DHT22;1924;48.078;11.516;2023-10-19T14:01:20;16.10;99.90
3818;DHT22;1924;48.078;11.516;2023-10-19T14:03:52;16.00;99.90
3818;DHT22;1924;48.078;11.516;2023-10-19T14:06:21;15.90;99.90
3818;DHT22;1924;48.078;11.516;2023-10-19T14:08:49;15.80;99.90
3818;DHT22;1924;48.078;11.516;2023-10-19T14:11:16;15.80;99.90
3818;DHT22;1924;48.078;11.516;2023-10-19T14:13:43;15.70;99.90
3818;DHT22;1924;48.078;11.516;2023-10-19T14:16:10;15.70;99.90
3818;DHT22;1924;48.078;11.516;2023-10-19T14:18:37;15.70;99.90
3818;DHT22;1924;48.078;11.516;2023-10-19T14:21:13;15.70;99.90
3818;DHT22;1924;48.078;11.516;2023-10-19T14:23:40;15.60;99.90
3818;DHT22;1924;48.078;11.516;2023-10-19T14:26:08;15.60;99.90
3818;DHT22;1924;48.078;11.516;2023-10-19T14:28:35;15.50;99.90
3818;DHT22;1924;48.078;11.516;2023-10-19T14:31:03;15.60;99.90
3818;DHT22;1924;48.078;11.516;2023-10-19T14:33:30;15.70;99.90
3818;DHT22;1924;48.078;11.516;2023-10-19T14:35:58;15.80;99.90
3818;DHT22;1924;48.078;11.516;2023-10-19T14:38:27;15.90;99.90
3818;DHT22;1924;48.078;11.516;2023-10-19T14:40:53;15.80;99.90
3818;DHT22;1924;48.078;11.516;2023-10-19T14:43:20;15.80;99.90
3818;DHT22;1924;48.078;11.516;2023-10-19T14:45:48;15.80;99.90
3818;DHT22;1924;48.078;11.516;2023-10-19T14:48:16;15.80;99.90
3818;DHT22;1924;48.078;11.516;2023-10-19T14:50:45;15.70;99.90
3818;DHT22;1924;48.078;11.516;2023-10-19T14:53:12;15.70;99.90
3818;DHT22;1924;48.078;11.516;2023-10-19T14:55:43;15.70;99.90
3818;DHT22;1924;48.078;11.516;2023-10-19T14:58:10;15.60;99.90
3818;DHT22;1924;48.078;11.516;2023-10-19T15:00:37;15.60;99.90
3818;DHT22;1924;48.078;11.516;2023-10-19T15:03:08;15.50;99.90
3818;DHT22;1924;48.078;11.516;2023-10-19T15:05:35;15.40;99.90
3818;DHT22;1924;48.078;11.516;2023-10-19T15:08:04;15.40;99.90
3818;DHT22;1924;48.078;11.516;2023-10-19T15:10:32;15.30;99.90
3818;DHT22;1924;48.078;11.516;2023-10-19T15:13:00;15.30;99.90
3818;DHT22;1924;48.078;11.516;2023-10-19T15:15:28;15.20;99.90
3818;DHT22;1924;48.078;11.516;2023-10-19T15:17:55;15.20;99.90
3818;DHT22;1924;48.078;11.516;2023-10-19T15:20:25;15.20;99.90
3818;DHT22;1924;48.078;11.516;2023-10-19T15:22:52;15.10;99.90
3818;DHT22;1924;48.078;11.516;2023-10-19T15:25:20;15.10;99.90
3818;DHT22;1924;48.078;11.516;2023-10-19T15:27:49;15.10;99.90
3818;DHT22;1924;48.078;11.516;2023-10-19T15:30:18;15.10;99.90
3818;DHT22;1924;48.078;11.516;2023-10-19T15:32:47;15.10;99.90
3818;DHT22;1924;48.078;11.516;2023-10-19T15:35:15;15.20;99.90
3818;DHT22;1924;48.078;11.516;2023-10-19T15:37:47;15.20;99.90
3818;DHT22;1924;48.078;11.516;2023-10-19T15:40:14;15.20;99.90
3818;DHT22;1924;48.078;11.516;2023-10-19T15:42:41;15.20;99.90
3818;DHT22;1924;48.078;11.516;2023-10-19T15:45:09;15.20;99.90
3818;DHT22;1924;48.078;11.516;2023-10-19T15:47:42;15.20;99.90
3818;DHT22;1924;48.078;11.516;2023-10-19T15:50:13;15.10;99.90
3818;DHT22;1924;48.078;11.516;2023-10-19T15:52:40;15.10;99.90
3818;DHT22;1924;48.078;11.516;2023-10-19T15:55:08;15.00;99.90
3818;DHT22;1924;48.078;11.516;2023-10-19T15:57:36;15.00;99.90
3818;DHT22;1924;48.078;11.516;2023-10-19T16:00:04;15.00;99.90
3818;DHT22;1924;48.078;11.516;2023-10-19T16:02:32;14.90;99.90
3818;DHT22;1924;48.078;11.516;2023-10-19T16:05:00;14.90;99.90
3818;DHT22;1924;48.078;11.516;2023-10-19T16:07:27;14.90;99.90
3818;DHT22;1924;48.078;11.516;2023-10-19T16:09:54;14.80;99.90
3818;DHT22;1924;48.078;11.516;2023-10-19T16:12:21;14.80;99.90
3818;DHT22;1924;48.078;11.516;2023-10-19T16:14:48;14.70;99.90
3818;DHT22;1924;48.078;11.516;2023-10-19T16:17:16;14.70;99.90
3818;DHT22;1924;48.078;11.516;2023-10-19T16:19:44;14.70;99.90
3818;DHT22;1924;48.078;11.516;2023-10-19T16:22:13;14.70;99.90
3818;DHT22;1924;48.078;11.516;2023-10-19T16:24:44;14.60;99.90
3818;DHT22;1924;48.078;11.516;2023-10-19T16:27:11;14.60;99.90
3818;DHT22;1924;48.078;11.516;2023-10-19T16:29:37;14.60;99.90
3818;DHT22;1924;48.078;11.516;2023-10-19T16:32:05;14.50;99.90
3818;DHT22;1924;48.078;11.516;2023-10-19T16:34:34;14.50;99.90
3818;DHT22;1924;48.078;11.516;2023-10-19T16:37:02;14.50;99.90
3818;DHT22;1924;48.078;11.516;2023-10-19T16:39:31;14.50;99.90
3818;DHT22;1924;48.078;11.516;2023-10-19T16:41:58;14.50;99.90
3818;DHT22;1924;48.078;11.516;2023-10-19T16:44:27;14.50;99.90
3818;DHT22;1924;48.078;11.516;2023-10-19T16:46:54;14.50;99.90
3818;DHT22;1924;48.078;11.516;2023-10-19T16:49:20;14.40;99.90
3818;DHT22;1924;48.078;11.516;2023-10-19T16:51:47;14.40;99.90
3818;DHT22;1924;48.078;11.516;2023-10-19T16:54:14;14.40;99.90
3818;DHT22;1924;48.078;11.516;2023-10-19T16:56:44;14.40;99.90
3818;DHT22;1924;48.078;11.516;2023-10-19T16:59:12;14.40;99.90
3818;DHT22;1924;48.078;11.516;2023-10-19T17:01:40;14.30;99.90
3818;DHT22;1924;48.078;11.516;2023-10-19T17:04:07;14.30;99.90
3818;DHT22;1924;48.078;11.516;2023-10-19T17:06:35;14.30;99.90
3818;DHT22;1924;48.078;11.516;2023-10-19T17:09:09;14.30;99.90
3818;DHT22;1924;48.078;11.516;2023-10-19T17:11:38;14.20;99.90
3818;DHT22;1924;48.078;11.516;2023-10-19T17:14:06;14.10;99.90
3818;DHT22;1924;48.078;11.516;2023-10-19T17:16:33;14.10;99.90
3818;DHT22;1924;48.078;11.516;2023-10-19T17:19:00;14.10;99.90
3818;DHT22;1924;48.078;11.516;2023-10-19T17:21:27;14.00;99.90
3818;DHT22;1924;48.078;11.516;2023-10-19T17:23:55;14.00;99.90
3818;DHT22;1924;48.078;11.516;2023-10-19T17:26:22;13.90;99.90
3818;DHT22;1924;48.078;11.516;2023-10-19T17:28:50;13.90;99.90
3818;DHT22;1924;48.078;11.516;2023-10-19T17:31:20;13.80;99.90
3818;DHT22;1924;48.078;11.516;2023-10-19T17:33:47;13.70;99.90
3818;DHT22;1924;48.078;11.516;2023-10-19T17:36:14;13.70;99.90
3818;DHT22;1924;48.078;11.516;2023-10-19T17:38:40;13.70;99.90
3818;DHT22;1924;48.078;11.516;2023-10-19T17:41:07;13.60;99.90
3818;DHT22;1924;48.078;11.516;2023-10-19T17:43:36;13.60;99.90
3818;DHT22;1924;48.078;11.516;2023-10-19T17:46:04;13.50;99.90
3818;DHT22;1924;48.078;11.516;2023-10-19T17:48:34;13.50;99.90
3818;DHT22;1924;48.078;11.516;2023-10-19T17:51:08;13.50;99.90
3818;DHT22;1924;48.078;11.516;2023-10-19T17:53:36;13.50;99.90
3818;DHT22;1924;48.078;11.516;2023-10-19T17:56:03;13.50;99.90
3818;DHT22;1924;48.078;11.516;2023-10-19T17:58:31;13.40;99.90
3818;DHT22;1924;48.078;11.516;2023-10-19T18:00:58;13.40;99.90
3818;DHT22;1924;48.078;11.516;2023-10-19T18:03:25;13.40;99.90
3818;DHT22;1924;48.078;11.516;2023-10-19T18:05:53;13.30;99.90
3818;DHT22;1924;48.078;11.516;2023-10-19T18:08:20;13.30;99.90
3818;DHT22;1924;48.078;11.516;2023-10-19T18:10:47;13.30;99.90
3818;DHT22;1924;48.078;11.516;2023-10-19T18:13:14;13.20;99.90
3818;DHT22;1924;48.078;11.516;2023-10-19T18:15:41;13.20;99.90
3818;DHT22;1924;48.078;11.516;2023-10-19T18:18:10;13.20;99.90
3818;DHT22;1924;48.078;11.516;2023-10-19T18:20:37;13.20;99.90
3818;DHT22;1924;48.078;11.516;2023-10-19T18:23:06;13.10;99.90
3818;DHT22;1924;48.078;11.516;2023-10-19T18:25:32;13.10;99.90
3818;DHT22;1924;48.078;11.516;2023-10-19T18:27:59;13.00;99.90
3818;DHT22;1924;48.078;11.516;2023-10-19T18:30:29;13.00;99.90
3818;DHT22;1924;48.078;11.516;2023-10-19T18:32:55;13.00;99.90
3818;DHT22;1924;48.078;11.516;2023-10-19T18:35:22;13.00;99.90
3818;DHT22;1924;48.078;11.516;2023-10-19T18:37:50;13.00;99.90
3818;DHT22;1924;48.078;11.516;2023-10-19T18:40:18;13.00;99.90
3818;DHT22;1924;48.078;11.516;2023-10-19T18:42:48;13.00;99.90
3818;DHT22;1924;48.078;11.516;2023-10-19T18:45:15;12.90;99.90
3818;DHT22;1924;48.078;11.516;2023-10-19T18:47:42;13.00;99.90
3818;DHT22;1924;48.078;11.516;2023-10-19T18:50:09;13.00;99.90
3818;DHT22;1924;48.078;11.516;2023-10-19T18:52:36;13.00;99.90
3818;DHT22;1924;48.078;11.516;2023-10-19T18:55:03;13.00;99.90
3818;DHT22;1924;48.078;11.516;2023-10-19T18:57:32;13.00;99.90
3818;DHT22;1924;48.078;11.516;2023-10-19T18:59:59;13.00;99.90
3818;DHT22;1924;48.078;11.516;2023-10-19T19:02:26;13.00;99.90
3818;DHT22;1924;48.078;11.516;2023-10-19T19:04:53;13.00;99.90
3818;DHT22;1924;48.078;11.516;2023-10-19T19:07:20;13.00;99.90
3818;DHT22;1924;48.078;11.516;2023-10-19T19:09:48;13.00;99.90
3818;DHT22;1924;48.078;11.516;2023-10-19T19:12:15;13.00;99.90
3818;DHT22;1924;48.078;11.516;2023-10-19T19:14:45;13.00;99.90
3818;DHT22;1924;48.078;11.516;2023-10-19T19:17:13;13.00;99.90
3818;DHT22;1924;48.078;11.516;2023-10-19T19:19:40;13.00;99.90
3818;DHT22;1924;48.078;11.516;2023-10-19T19:22:07;13.00;99.90
3818;DHT22;1924;48.078;11.516;2023-10-19T19:24:34;13.00;99.90
3818;DHT22;1924;48.078;11.516;2023-10-19T19:27:03;13.00;99.90
3818;DHT22;1924;48.078;11.516;2023-10-19T19:29:30;13.00;99.90
3818;DHT22;1924;48.078;11.516;2023-10-19T19:31:58;13.00;99.90
3818;DHT22;1924;48.078;11.516;2023-10-19T19:34:25;12.90;99.90
3818;DHT22;1924;48.078;11.516;2023-10-19T19:36:52;13.00;99.90
3818;DHT22;1924;48.078;11.516;2023-10-19T19:39:18;13.00;99.90
3818;DHT22;1924;48.078;11.516;2023-10-19T19:41:45;13.00;99.90
3818;DHT22;1924;48.078;11.516;2023-10-19T19:44:12;13.00;99.90
3818;DHT22;1924;48.078;11.516;2023-10-19T19:46:39;13.00;99.90